createdAt,value
2023-03-08T00:02:11.383Z,-0.36
2023-03-08T00:07:17.498Z,-0.33
2023-03-08T00:12:20.102Z,-0.38
2023-03-08T00:17:24.380Z,-0.42
2023-03-08T00:22:28.417Z,-0.51
2023-03-08T00:27:30.109Z,-0.69
2023-03-08T00:32:34.362Z,-0.68
2023-03-08T00:37:36.061Z,-0.66
2023-03-08T00:42:37.787Z,-0.58
2023-03-08T00:47:42.030Z,-0.65
2023-03-08T00:52:43.684Z,-0.72
2023-03-08T00:57:47.587Z,-0.64
2023-03-08T01:02:51.937Z,-0.72
2023-03-08T01:07:55.917Z,-0.94
2023-03-08T01:13:00.218Z,-1.12
2023-03-08T01:18:01.913Z,-1.24
2023-03-08T01:23:04.612Z,-1.21
2023-03-08T01:28:10.906Z,-1.19
2023-03-08T01:33:12.573Z,-1.12
2023-03-08T01:38:14.398Z,-1.14
2023-03-08T01:43:33.286Z,-1.22
2023-03-08T01:48:48.657Z,-1.29
2023-03-08T01:53:53.837Z,-1.22
2023-03-08T01:58:59.093Z,-1.15
2023-03-08T02:04:04.117Z,-1.07
2023-03-08T02:09:12.776Z,-1.09
2023-03-08T02:14:16.513Z,-1.06
2023-03-08T02:19:47.662Z,-0.96
2023-03-08T02:24:51.454Z,-0.88
2023-03-08T02:29:53.174Z,-0.83
2023-03-08T02:34:54.824Z,-0.89
2023-03-08T02:39:56.466Z,-0.98
2023-03-08T02:44:58.215Z,-1.04
2023-03-08T02:50:02.461Z,-1.12
2023-03-08T02:55:09.596Z,-1.08
2023-03-08T03:00:14.272Z,-1.15
2023-03-08T03:05:16.070Z,-1.38
2023-03-08T03:10:18.182Z,-1.57
2023-03-08T03:15:24.885Z,-1.72
2023-03-08T03:20:33.657Z,-1.80
2023-03-08T03:25:40.722Z,-1.72
2023-03-08T03:30:46.488Z,-1.76
2023-03-08T03:35:58.188Z,-1.77
2023-03-08T03:41:07.329Z,-1.72
2023-03-08T03:46:12.558Z,-1.65
2023-03-08T03:51:21.004Z,-1.54
2023-03-08T03:56:30.269Z,-1.54
2023-03-08T04:01:35.214Z,-1.60
2023-03-08T04:06:49.144Z,-1.70
2023-03-08T04:11:57.015Z,-1.72
2023-03-08T04:17:01.424Z,-1.85
2023-03-08T04:22:11.993Z,-1.81
2023-03-08T04:27:20.145Z,-1.76
2023-03-08T04:32:22.141Z,-1.72
2023-03-08T04:37:31.048Z,-1.68
2023-03-08T04:42:41.976Z,-1.77
2023-03-08T04:47:45.596Z,-1.92
2023-03-08T04:52:48.454Z,-2.10
2023-03-08T04:57:54.998Z,-2.25
2023-03-08T05:03:00.103Z,-2.34
2023-03-08T05:08:05.395Z,-2.39
2023-03-08T05:13:09.586Z,-2.43
2023-03-08T05:18:14.582Z,-2.47
2023-03-08T05:23:16.545Z,-2.59
2023-03-08T05:28:20.097Z,-2.71
2023-03-08T05:33:24.186Z,-2.86
2023-03-08T05:38:32.419Z,-2.90
2023-03-08T05:43:35.239Z,-2.94
2023-03-08T05:48:39.762Z,-2.95
2023-03-08T05:53:42.457Z,-2.99
2023-03-08T05:58:48.579Z,-3.02
2023-03-08T06:03:55.508Z,-2.95
2023-03-08T06:08:58.887Z,-2.82
2023-03-08T06:14:01.457Z,-2.69
2023-03-08T06:19:08.061Z,-2.53
2023-03-08T06:24:11.772Z,-2.39
2023-03-08T06:29:16.191Z,-2.22
2023-03-08T06:34:20.385Z,-2.18
2023-03-08T06:39:30.907Z,-2.15
2023-03-08T06:44:34.827Z,-1.93
2023-03-08T06:49:38.878Z,-1.88
2023-03-08T06:54:43.486Z,-1.88
2023-03-08T06:59:45.253Z,-1.89
2023-03-08T07:04:49.285Z,-1.50
2023-03-08T07:09:51.328Z,-1.48
2023-03-08T07:14:55.171Z,-1.50
2023-03-08T07:19:56.999Z,-1.43
2023-03-08T07:25:01.214Z,-1.34
2023-03-08T07:30:06.124Z,-1.16
2023-03-08T07:35:11.663Z,-1.11
2023-03-08T07:40:16.258Z,-0.91
2023-03-08T07:45:20.401Z,-0.64
2023-03-08T07:50:22.368Z,-0.48
2023-03-08T07:55:27.614Z,-0.36
2023-03-08T08:00:29.450Z,-0.22
2023-03-08T08:05:34.700Z,-0.05
2023-03-08T08:10:36.493Z,0.05
2023-03-08T08:15:40.749Z,0.23
2023-03-08T08:20:45.036Z,0.37
2023-03-08T08:25:47.760Z,0.48
2023-03-08T08:31:02.196Z,0.70
2023-03-08T08:36:09.513Z,0.71
2023-03-08T08:41:11.332Z,0.66
2023-03-08T08:46:13.694Z,0.65
2023-03-08T08:51:15.511Z,0.74
2023-03-08T08:56:26.729Z,0.84
2023-03-08T09:01:32.152Z,0.75
2023-03-08T09:06:33.810Z,0.64
2023-03-08T09:11:48.475Z,0.74
2023-03-08T09:16:55.328Z,0.66
2023-03-08T09:21:57.021Z,0.84
2023-03-08T09:27:01.021Z,1.05
2023-03-08T09:32:06.094Z,1.27
2023-03-08T09:37:08.362Z,1.65
2023-03-08T09:42:32.657Z,1.58
2023-03-08T09:47:49.242Z,1.75
2023-03-08T09:53:09.629Z,1.95
2023-03-08T09:58:25.751Z,2.28
2023-03-08T10:03:46.485Z,2.45
2023-03-08T10:09:02.191Z,2.49
2023-03-08T10:14:17.733Z,2.61
2023-03-08T10:19:29.048Z,2.69
2023-03-08T10:24:45.253Z,2.76
2023-03-08T10:29:55.440Z,2.83
2023-03-08T10:35:04.828Z,2.84
2023-03-08T10:40:11.033Z,3.04
2023-03-08T10:45:22.258Z,3.14
2023-03-08T10:50:38.189Z,3.44
2023-03-08T10:55:47.822Z,3.65
2023-03-08T11:00:53.298Z,3.90
2023-03-08T11:06:13.506Z,3.98
2023-03-08T11:11:18.066Z,4.22
2023-03-08T11:16:47.846Z,4.16
2023-03-08T11:22:03.817Z,4.11
2023-03-08T11:27:30.303Z,4.09
2023-03-08T11:32:57.898Z,4.14
2023-03-08T11:38:28.974Z,4.18
2023-03-08T11:44:02.005Z,4.34
2023-03-08T11:49:14.944Z,4.58
2023-03-08T11:54:49.410Z,5.26
2023-03-08T12:00:00.970Z,6.16
2023-03-08T12:05:20.189Z,6.88
2023-03-08T12:10:24.790Z,7.07
2023-03-08T12:15:29.985Z,7.15
2023-03-08T12:20:41.523Z,7.61
2023-03-08T12:25:47.616Z,8.49
2023-03-08T12:31:01.309Z,9.00
2023-03-08T12:36:07.307Z,9.26
2023-03-08T12:41:24.011Z,9.57
2023-03-08T12:46:25.858Z,8.92
2023-03-08T12:51:32.843Z,8.57
2023-03-08T12:56:37.224Z,8.13
2023-03-08T13:01:45.346Z,7.80
2023-03-08T13:07:05.858Z,7.61
2023-03-08T13:12:40.795Z,7.90
2023-03-08T13:18:00.528Z,7.48
2023-03-08T13:23:04.846Z,7.51
2023-03-08T13:28:46.637Z,7.86
2023-03-08T13:33:51.990Z,8.17
2023-03-08T13:39:01.237Z,8.12
2023-03-08T13:44:07.578Z,8.00
2023-03-08T13:49:25.577Z,8.22
2023-03-08T13:54:35.746Z,8.54
2023-03-08T13:59:38.110Z,8.84
2023-03-08T14:04:42.977Z,8.94
2023-03-08T14:09:44.794Z,8.89
2023-03-08T14:14:52.500Z,8.48
2023-03-08T14:20:02.380Z,8.38
2023-03-08T14:25:05.209Z,8.15
2023-03-08T14:30:17.749Z,7.59
2023-03-08T14:35:25.883Z,7.60
2023-03-08T14:40:29.946Z,7.56
2023-03-08T14:45:50.533Z,7.57
2023-03-08T14:51:00.291Z,7.63
2023-03-08T14:56:10.972Z,7.61
2023-03-08T15:01:12.961Z,7.59
2023-03-08T15:06:23.094Z,8.10
2023-03-08T15:11:25.020Z,9.67
2023-03-08T15:16:29.837Z,12.61
2023-03-08T15:21:36.117Z,14.25
2023-03-08T15:26:37.770Z,15.24
2023-03-08T15:31:39.557Z,15.88
2023-03-08T15:36:45.978Z,16.31
2023-03-08T15:41:50.205Z,16.61
2023-03-08T15:46:52.990Z,16.81
2023-03-08T15:51:59.282Z,16.96
2023-03-08T15:57:00.962Z,17.07
2023-03-08T16:02:02.788Z,17.16
2023-03-08T16:07:04.541Z,17.21
2023-03-08T16:12:09.083Z,17.26
2023-03-08T16:17:16.907Z,17.28
2023-03-08T16:22:26.856Z,17.30
2023-03-08T16:27:35.446Z,17.32
2023-03-08T16:32:40.581Z,17.33
2023-03-08T16:37:44.698Z,17.34
2023-03-08T16:42:57.982Z,17.33
2023-03-08T16:48:00.461Z,17.32
2023-03-08T16:53:02.145Z,17.32
2023-03-08T16:58:06.346Z,17.32
2023-03-08T17:03:12.693Z,17.29
2023-03-08T17:08:14.425Z,17.33
2023-03-08T17:13:20.981Z,17.35
2023-03-08T17:18:26.088Z,17.33
2023-03-08T17:23:30.075Z,17.32
2023-03-08T17:28:32.444Z,17.28
2023-03-08T17:33:36.474Z,17.26
2023-03-08T17:38:42.635Z,17.23
2023-03-08T17:43:46.685Z,17.22
2023-03-08T17:48:51.571Z,17.18
2023-03-08T17:53:54.329Z,17.17
2023-03-08T17:58:57.747Z,17.15
2023-03-08T18:03:59.880Z,17.16
2023-03-08T18:09:09.617Z,17.17
2023-03-08T18:14:13.425Z,17.18
2023-03-08T18:19:15.233Z,17.17
2023-03-08T18:24:17.102Z,17.19
2023-03-08T18:29:21.822Z,17.24
2023-03-08T18:34:28.923Z,17.29
2023-03-08T18:39:30.840Z,17.34
2023-03-08T18:44:34.828Z,17.37
2023-03-08T18:49:38.867Z,17.38
2023-03-08T18:54:43.618Z,17.39
2023-03-08T18:59:45.730Z,17.40
2023-03-08T19:04:47.794Z,17.40
2023-03-08T19:09:56.971Z,17.40
2023-03-08T19:14:58.704Z,17.42
2023-03-08T19:20:00.443Z,17.41
2023-03-08T19:25:02.375Z,17.36
2023-03-08T19:30:04.437Z,17.35
2023-03-08T19:35:06.901Z,17.30
2023-03-08T19:40:09.787Z,17.25
2023-03-08T19:45:13.320Z,17.20
2023-03-08T19:50:20.109Z,17.15
2023-03-08T19:55:21.939Z,17.11
2023-03-08T20:00:28.833Z,17.06
2023-03-08T20:05:42.437Z,17.02
2023-03-08T20:10:44.146Z,17.00
2023-03-08T20:15:46.401Z,16.98
2023-03-08T20:20:48.304Z,16.96
2023-03-08T20:25:50.020Z,16.95
2023-03-08T20:30:52.489Z,16.91
2023-03-08T20:35:58.110Z,16.89
2023-03-08T20:41:00.927Z,12.71
2023-03-08T20:46:07.697Z,7.07
2023-03-08T20:51:12.707Z,4.62
2023-03-08T20:56:16.728Z,3.43
2023-03-08T21:01:30.599Z,2.70
2023-03-08T21:06:37.141Z,2.25
2023-03-08T21:11:38.961Z,2.00
2023-03-08T21:16:40.832Z,1.81
2023-03-08T21:21:45.533Z,1.69
2023-03-08T21:26:47.899Z,1.61
2023-03-08T21:31:52.685Z,1.55
2023-03-08T21:36:59.320Z,1.48
2023-03-08T21:42:01.022Z,1.42
2023-03-08T21:47:02.734Z,1.38
2023-03-08T21:52:09.555Z,1.35
2023-03-08T21:57:11.418Z,1.32
2023-03-08T22:02:13.156Z,1.30
2023-03-08T22:07:14.878Z,1.24
2023-03-08T22:12:16.646Z,1.12
2023-03-08T22:17:18.316Z,1.01
2023-03-08T22:22:22.583Z,0.92
2023-03-08T22:27:28.207Z,0.83
2023-03-08T22:32:32.164Z,0.78
2023-03-08T22:37:37.192Z,0.64
2023-03-08T22:42:41.944Z,0.51
2023-03-08T22:47:43.900Z,0.44
2023-03-08T22:52:48.566Z,0.38
2023-03-08T22:57:52.467Z,0.32
2023-03-08T23:02:57.738Z,0.30
2023-03-08T23:07:59.442Z,0.27
2023-03-08T23:13:03.746Z,0.19
2023-03-08T23:18:05.530Z,0.14
2023-03-08T23:23:11.921Z,0.18
2023-03-08T23:28:18.848Z,0.16
2023-03-08T23:33:20.766Z,0.11
2023-03-08T23:38:24.695Z,0.13
2023-03-08T23:43:26.390Z,0.15
2023-03-08T23:48:30.610Z,0.15
2023-03-08T23:53:32.356Z,0.18
2023-03-08T23:58:34.116Z,0.19
